createdAt,value
2022-09-20T00:01:47.172Z,1.60
2022-09-20T00:04:36.920Z,1.30
2022-09-20T00:07:26.991Z,1.40
2022-09-20T00:10:17.098Z,1.30
2022-09-20T00:13:08.988Z,1.40
2022-09-20T00:15:59.599Z,1.40
2022-09-20T00:18:53.440Z,1.30
2022-09-20T00:21:43.781Z,1.40
2022-09-20T00:24:36.623Z,1.40
2022-09-20T00:27:27.226Z,1.30
2022-09-20T00:30:17.545Z,1.40
2022-09-20T00:33:07.620Z,1.40
2022-09-20T00:35:59.943Z,1.50
2022-09-20T00:38:49.875Z,1.50
2022-09-20T00:41:40.176Z,1.60
2022-09-20T00:44:51.450Z,1.40
2022-09-20T00:47:46.237Z,1.40
2022-09-20T00:50:42.479Z,1.60
2022-09-20T00:53:37.941Z,1.70
2022-09-20T00:56:32.909Z,1.50
2022-09-20T00:59:26.644Z,1.30
2022-09-20T01:02:21.279Z,1.40
2022-09-20T01:05:14.765Z,1.30
2022-09-20T01:08:05.527Z,1.50
2022-09-20T01:10:55.633Z,1.40
2022-09-20T01:13:45.899Z,1.40
2022-09-20T01:16:36.960Z,1.30
2022-09-20T01:19:36.112Z,1.60
2022-09-20T01:22:33.830Z,1.50
2022-09-20T01:25:41.205Z,1.70
2022-09-20T01:28:31.955Z,1.30
2022-09-20T01:31:27.949Z,1.50
2022-09-20T01:34:22.872Z,1.60
2022-09-20T01:37:20.376Z,1.70
2022-09-20T01:40:20.156Z,1.60
2022-09-20T01:43:19.748Z,1.40
2022-09-20T01:46:23.091Z,1.50
2022-09-20T01:49:26.514Z,1.50
2022-09-20T01:52:41.787Z,1.40
2022-09-20T01:56:04.768Z,1.50
2022-09-20T01:59:28.585Z,1.50
2022-09-20T02:02:45.425Z,1.50
2022-09-20T02:05:53.161Z,1.30
2022-09-20T02:09:18.573Z,1.60
2022-09-20T02:12:45.432Z,1.40
2022-09-20T02:15:54.870Z,1.40
2022-09-20T02:19:02.834Z,1.30
2022-09-20T02:22:04.485Z,1.20
2022-09-20T02:25:04.122Z,1.40
2022-09-20T02:28:06.324Z,1.40
2022-09-20T02:31:03.787Z,1.40
2022-09-20T02:34:22.969Z,1.40
2022-09-20T02:37:36.813Z,1.40
2022-09-20T02:40:51.557Z,1.60
2022-09-20T02:43:53.740Z,1.30
2022-09-20T02:46:52.514Z,1.40
2022-09-20T02:49:53.121Z,1.60
2022-09-20T02:52:50.912Z,1.60
2022-09-20T02:55:49.905Z,1.70
2022-09-20T02:58:48.392Z,1.40
2022-09-20T03:01:47.647Z,1.40
2022-09-20T03:04:49.784Z,1.40
2022-09-20T03:07:56.232Z,1.70
2022-09-20T03:10:56.668Z,1.40
2022-09-20T03:14:02.998Z,1.60
2022-09-20T03:17:07.984Z,1.50
2022-09-20T03:20:09.993Z,1.60
2022-09-20T03:23:11.813Z,1.50
2022-09-20T03:26:10.530Z,1.70
2022-09-20T03:29:10.072Z,1.30
2022-09-20T03:32:15.244Z,1.70
2022-09-20T03:35:21.077Z,1.40
2022-09-20T03:38:32.319Z,1.30
2022-09-20T03:41:44.531Z,1.40
2022-09-20T03:44:50.640Z,1.60
2022-09-20T03:48:08.083Z,1.20
2022-09-20T03:51:23.771Z,1.50
2022-09-20T03:54:55.728Z,1.50
2022-09-20T03:58:10.574Z,1.40
2022-09-20T04:01:18.261Z,1.30
2022-09-20T04:04:15.127Z,1.40
2022-09-20T04:07:14.912Z,1.40
2022-09-20T04:10:26.645Z,1.30
2022-09-20T04:13:28.003Z,1.40
2022-09-20T04:16:28.901Z,1.60
2022-09-20T04:19:29.771Z,1.30
2022-09-20T04:22:26.787Z,1.40
2022-09-20T04:25:22.467Z,1.40
2022-09-20T04:28:20.712Z,1.30
2022-09-20T04:31:28.348Z,1.40
2022-09-20T04:34:24.373Z,1.40
2022-09-20T04:37:29.933Z,1.50
2022-09-20T04:40:35.928Z,1.40
2022-09-20T04:43:53.858Z,1.50
2022-09-20T04:47:08.448Z,1.60
2022-09-20T04:50:32.442Z,1.20
2022-09-20T04:53:53.656Z,1.30
2022-09-20T04:57:01.530Z,1.30
2022-09-20T05:00:07.255Z,1.40
2022-09-20T05:03:30.104Z,1.30
2022-09-20T05:07:04.621Z,1.40
2022-09-20T05:10:15.788Z,1.30
2022-09-20T05:13:25.123Z,1.30
2022-09-20T05:16:26.262Z,1.30
2022-09-20T05:19:29.768Z,1.60
2022-09-20T05:22:44.057Z,1.40
2022-09-20T05:26:07.960Z,1.30
2022-09-20T05:29:03.692Z,1.20
2022-09-20T05:32:00.889Z,1.30
2022-09-20T05:34:59.558Z,1.20
2022-09-20T05:37:59.373Z,1.10
2022-09-20T05:41:07.573Z,1.30
2022-09-20T05:44:09.058Z,1.30
2022-09-20T05:47:10.901Z,1.10
2022-09-20T05:50:10.317Z,1.20
2022-09-20T05:53:17.264Z,1.20
2022-09-20T05:56:15.573Z,1.20
2022-09-20T05:59:31.445Z,1.20
2022-09-20T06:02:41.368Z,1.40
2022-09-20T06:05:42.749Z,1.40
2022-09-20T06:08:51.926Z,1.10
2022-09-20T06:12:13.424Z,1.10
2022-09-20T06:15:13.277Z,1.10
2022-09-20T06:18:17.885Z,1.10
2022-09-20T06:21:17.854Z,1.10
2022-09-20T06:24:17.300Z,1.10
2022-09-20T06:27:12.128Z,1.30
2022-09-20T06:30:07.216Z,1.30
2022-09-20T06:32:59.566Z,1.20
2022-09-20T06:35:58.288Z,1.20
2022-09-20T06:39:17.685Z,1.10
2022-09-20T06:42:10.631Z,1.20
2022-09-20T06:45:00.821Z,1.20
2022-09-20T06:47:51.092Z,1.50
2022-09-20T06:50:43.453Z,1.20
2022-09-20T06:53:37.124Z,1.10
2022-09-20T06:56:29.667Z,1.00
2022-09-20T06:59:19.566Z,1.10
2022-09-20T07:02:09.911Z,1.10
2022-09-20T07:04:59.823Z,1.10
2022-09-20T07:07:50.651Z,1.30
2022-09-20T07:10:41.257Z,1.30
2022-09-20T07:13:31.183Z,1.90
2022-09-20T07:16:21.635Z,1.40
2022-09-20T07:19:11.662Z,1.40
2022-09-20T07:22:01.495Z,1.20
2022-09-20T07:24:51.309Z,1.30
2022-09-20T07:27:41.218Z,1.40
2022-09-20T07:30:31.008Z,1.80
2022-09-20T07:33:21.716Z,1.40
2022-09-20T07:36:13.661Z,1.50
2022-09-20T07:39:03.149Z,1.50
2022-09-20T07:41:53.189Z,1.60
2022-09-20T07:44:43.415Z,1.50
2022-09-20T07:47:35.357Z,1.90
2022-09-20T07:50:25.531Z,1.70
2022-09-20T07:53:14.860Z,1.70
2022-09-20T07:56:07.511Z,1.90
2022-09-20T07:58:57.665Z,2.50
2022-09-20T08:01:48.153Z,2.60
2022-09-20T08:04:38.118Z,2.20
2022-09-20T08:07:28.818Z,2.30
2022-09-20T08:10:18.947Z,1.80
2022-09-20T08:16:20.679Z,1.90
2022-09-20T08:19:15.354Z,2.10
2022-09-20T08:22:05.635Z,2.20
2022-09-20T08:24:55.861Z,2.20
2022-09-20T08:27:46.036Z,2.40
2022-09-20T08:30:36.013Z,2.80
2022-09-20T08:33:26.023Z,2.40
2022-09-20T08:36:18.713Z,2.00
2022-09-20T08:42:27.995Z,2.60
2022-09-20T08:45:33.578Z,1.80
2022-09-20T08:48:29.801Z,2.30
2022-09-20T08:51:23.483Z,2.30
2022-09-20T08:54:16.416Z,1.70
2022-09-20T08:57:12.745Z,2.00
2022-09-20T09:00:04.043Z,2.30
2022-09-20T09:02:58.418Z,1.70
2022-09-20T09:05:50.674Z,2.00
2022-09-20T09:08:41.614Z,2.10
2022-09-20T09:11:31.903Z,2.20
2022-09-20T09:14:45.029Z,2.10
2022-09-20T09:17:35.281Z,2.10
2022-09-20T09:20:26.859Z,1.90
2022-09-20T09:23:27.582Z,2.00
2022-09-20T09:26:21.376Z,2.10
2022-09-20T09:29:23.482Z,2.40
2022-09-20T09:32:26.632Z,2.80
2022-09-20T09:35:31.803Z,2.30
2022-09-20T09:38:24.276Z,2.50
2022-09-20T09:41:26.535Z,2.20
2022-09-20T09:44:25.260Z,2.50
2022-09-20T09:47:28.832Z,2.10
2022-09-20T09:50:26.956Z,1.90
2022-09-20T09:53:20.791Z,2.30
2022-09-20T09:56:33.859Z,1.80
2022-09-20T09:59:43.362Z,1.90
2022-09-20T10:02:53.460Z,1.80
2022-09-20T10:05:51.570Z,2.00
2022-09-20T10:08:51.295Z,1.80
2022-09-20T10:11:58.818Z,1.70
2022-09-20T10:15:00.385Z,2.00
2022-09-20T10:18:00.454Z,1.80
2022-09-20T10:21:02.655Z,2.50
2022-09-20T10:24:05.490Z,3.90
2022-09-20T10:27:12.883Z,2.20
2022-09-20T10:30:10.877Z,2.40
2022-09-20T10:33:12.778Z,4.00
2022-09-20T10:36:18.689Z,4.10
2022-09-20T10:39:21.249Z,2.30
2022-09-20T10:42:44.504Z,2.70
2022-09-20T10:46:08.848Z,2.30
2022-09-20T10:49:04.780Z,2.00
2022-09-20T10:52:10.143Z,2.20
2022-09-20T10:55:09.844Z,2.00
2022-09-20T10:58:37.116Z,2.00
2022-09-20T11:01:35.964Z,2.20
2022-09-20T11:04:44.060Z,1.70
2022-09-20T11:07:49.567Z,2.00
2022-09-20T11:10:43.678Z,2.00
2022-09-20T11:13:39.932Z,2.10
2022-09-20T11:16:36.059Z,2.00
2022-09-20T11:19:33.948Z,1.60
2022-09-20T11:22:32.673Z,1.90
2022-09-20T11:25:29.645Z,1.80
2022-09-20T11:28:23.093Z,1.60
2022-09-20T11:31:20.254Z,1.70
2022-09-20T11:34:18.101Z,1.90
2022-09-20T11:37:08.126Z,2.00
2022-09-20T11:40:10.283Z,1.50
2022-09-20T11:43:03.559Z,1.60
2022-09-20T11:45:59.819Z,1.70
2022-09-20T11:48:56.511Z,1.60
2022-09-20T11:52:15.246Z,1.80
2022-09-20T11:55:26.571Z,1.60
2022-09-20T11:58:22.478Z,1.80
2022-09-20T12:01:17.218Z,1.90
2022-09-20T12:04:32.975Z,1.70
2022-09-20T12:07:27.401Z,1.70
2022-09-20T12:10:26.434Z,1.60
2022-09-20T12:13:26.341Z,1.90
2022-09-20T12:16:36.489Z,1.90
2022-09-20T12:19:43.285Z,1.70
2022-09-20T12:22:32.897Z,2.00
2022-09-20T12:25:41.236Z,1.40
2022-09-20T12:28:39.080Z,1.80
2022-09-20T12:31:51.009Z,2.20
2022-09-20T12:34:41.132Z,1.80
2022-09-20T12:37:31.114Z,1.90
2022-09-20T12:40:26.281Z,2.10
2022-09-20T12:43:23.138Z,2.10
2022-09-20T12:46:24.794Z,2.30
2022-09-20T12:49:51.083Z,2.10
2022-09-20T12:52:58.922Z,2.10
2022-09-20T12:56:05.863Z,2.60
2022-09-20T12:58:57.118Z,2.20
2022-09-20T13:01:47.468Z,1.90
2022-09-20T13:04:55.748Z,1.90
2022-09-20T13:07:59.318Z,2.00
2022-09-20T13:10:51.943Z,2.40
2022-09-20T13:13:50.386Z,2.20
2022-09-20T13:16:47.643Z,2.00
2022-09-20T13:19:42.410Z,2.00
2022-09-20T13:22:37.199Z,2.20
2022-09-20T13:25:28.585Z,2.00
2022-09-20T13:28:29.507Z,2.00
2022-09-20T13:31:34.594Z,2.00
2022-09-20T13:34:26.351Z,1.80
2022-09-20T13:37:21.102Z,1.80
2022-09-20T13:40:20.920Z,2.10
2022-09-20T13:43:29.835Z,1.60
2022-09-20T13:46:23.631Z,1.70
2022-09-20T13:49:20.900Z,1.90
2022-09-20T13:52:25.332Z,1.90
2022-09-20T13:55:39.814Z,1.70
2022-09-20T13:58:32.878Z,1.90
2022-09-20T14:01:29.234Z,1.70
2022-09-20T14:04:21.397Z,1.90
2022-09-20T14:07:11.528Z,1.90
2022-09-20T14:10:01.673Z,1.80
2022-09-20T14:12:52.708Z,1.70
2022-09-20T14:15:46.504Z,1.90
2022-09-20T14:18:37.832Z,1.90
2022-09-20T14:21:29.649Z,2.40
2022-09-20T14:24:31.970Z,1.90
2022-09-20T14:27:23.077Z,1.70
2022-09-20T14:30:33.538Z,1.80
2022-09-20T14:33:24.474Z,1.60
2022-09-20T14:36:21.349Z,1.80
2022-09-20T14:39:19.678Z,1.70
2022-09-20T14:42:22.240Z,1.60
2022-09-20T14:45:25.519Z,1.70
2022-09-20T14:48:40.881Z,1.90
2022-09-20T14:51:30.411Z,1.50
2022-09-20T14:54:29.954Z,1.70
2022-09-20T14:57:23.721Z,1.50
2022-09-20T15:00:17.018Z,1.70
2022-09-20T15:03:21.232Z,1.70
2022-09-20T15:06:14.832Z,1.80
2022-09-20T15:09:04.839Z,1.80
2022-09-20T15:12:06.072Z,1.70
2022-09-20T15:14:55.828Z,1.80
2022-09-20T15:17:46.945Z,1.80
2022-09-20T15:20:36.906Z,1.70
2022-09-20T15:23:26.985Z,2.00
2022-09-20T15:26:18.209Z,1.80
2022-09-20T15:29:09.801Z,1.90
2022-09-20T15:31:59.907Z,1.90
2022-09-20T15:34:49.696Z,1.70
2022-09-20T15:37:40.393Z,1.70
2022-09-20T15:40:30.643Z,1.70
2022-09-20T15:43:24.084Z,1.50
2022-09-20T15:46:22.938Z,1.80
2022-09-20T15:49:14.548Z,2.20
2022-09-20T15:52:05.473Z,1.80
2022-09-20T15:54:59.498Z,1.90
2022-09-20T15:57:50.032Z,1.80
2022-09-20T16:00:40.559Z,1.90
2022-09-20T16:03:32.982Z,1.80
2022-09-20T16:06:24.101Z,2.00
2022-09-20T16:09:15.070Z,1.90
2022-09-20T16:12:05.677Z,1.80
2022-09-20T16:14:55.298Z,1.70
2022-09-20T16:18:02.695Z,1.70
2022-09-20T16:20:52.561Z,1.90
2022-09-20T16:23:44.873Z,1.70
2022-09-20T16:26:35.762Z,1.90
2022-09-20T16:29:28.440Z,1.80
2022-09-20T16:32:18.203Z,1.80
2022-09-20T16:35:10.168Z,1.80
2022-09-20T16:38:00.148Z,1.90
2022-09-20T16:40:54.261Z,1.90
2022-09-20T16:43:44.608Z,1.90
2022-09-20T16:46:37.269Z,1.70
2022-09-20T16:49:28.270Z,1.70
2022-09-20T16:52:18.797Z,1.90
2022-09-20T16:55:11.942Z,1.70
2022-09-20T16:58:01.733Z,1.50
2022-09-20T17:00:51.607Z,1.80
2022-09-20T17:03:42.266Z,1.70
2022-09-20T17:06:34.044Z,1.70
2022-09-20T17:09:23.840Z,1.80
2022-09-20T17:12:18.899Z,1.90
2022-09-20T17:15:13.412Z,1.60
2022-09-20T17:18:05.554Z,1.60
2022-09-20T17:20:56.292Z,1.50
2022-09-20T17:23:51.054Z,1.60
2022-09-20T17:26:44.688Z,1.70
2022-09-20T17:29:34.675Z,1.90
2022-09-20T17:32:25.089Z,2.30
2022-09-20T17:35:16.620Z,1.90
2022-09-20T17:38:06.657Z,2.00
2022-09-20T17:41:04.099Z,1.90
2022-09-20T17:43:57.113Z,1.80
2022-09-20T17:46:49.682Z,1.70
2022-09-20T17:49:40.819Z,1.60
2022-09-20T17:52:31.395Z,1.50
2022-09-20T17:55:21.353Z,1.50
2022-09-20T17:58:11.017Z,1.40
2022-09-20T18:01:12.464Z,1.50
2022-09-20T18:04:05.119Z,1.50
2022-09-20T18:06:56.219Z,1.60
2022-09-20T18:09:46.376Z,1.80
2022-09-20T18:12:36.907Z,1.80
2022-09-20T18:15:28.061Z,1.70
2022-09-20T18:18:18.290Z,1.60
2022-09-20T18:21:15.732Z,1.80
2022-09-20T18:24:08.815Z,1.90
2022-09-20T18:27:00.609Z,1.50
2022-09-20T18:29:50.833Z,1.60
2022-09-20T18:32:44.408Z,1.60
2022-09-20T18:35:35.210Z,1.50
2022-09-20T18:38:25.988Z,1.70
2022-09-20T18:41:16.606Z,1.60
2022-09-20T18:44:08.619Z,1.40
2022-09-20T18:47:00.199Z,1.40
2022-09-20T18:49:50.670Z,1.40
2022-09-20T18:52:40.955Z,1.60
2022-09-20T18:55:31.782Z,1.60
2022-09-20T18:58:24.734Z,1.50
2022-09-20T19:01:36.206Z,1.50
2022-09-20T19:04:41.005Z,1.40
2022-09-20T19:07:41.792Z,1.50
2022-09-20T19:10:41.720Z,1.50
2022-09-20T19:13:40.097Z,1.70
2022-09-20T19:16:36.799Z,1.30
2022-09-20T19:19:36.595Z,1.50
2022-09-20T19:22:36.152Z,1.60
2022-09-20T19:25:32.640Z,1.50
2022-09-20T19:28:23.611Z,1.50
2022-09-20T19:31:24.391Z,1.40
2022-09-20T19:34:18.935Z,1.50
2022-09-20T19:37:18.803Z,1.60
2022-09-20T19:40:21.344Z,1.60
2022-09-20T19:43:29.106Z,1.50
2022-09-20T19:46:35.933Z,1.40
2022-09-20T19:49:31.525Z,1.80
2022-09-20T19:52:23.042Z,2.20
2022-09-20T19:55:17.261Z,1.60
2022-09-20T19:58:09.100Z,1.70
2022-09-20T20:00:59.955Z,1.40
2022-09-20T20:03:50.952Z,1.40
2022-09-20T20:06:50.060Z,1.30
2022-09-20T20:09:46.911Z,1.50
2022-09-20T20:12:45.773Z,1.30
2022-09-20T20:15:46.356Z,1.30
2022-09-20T20:18:44.616Z,1.60
2022-09-20T20:21:41.800Z,1.40
2022-09-20T20:24:38.903Z,1.60
2022-09-20T20:27:31.446Z,1.50
2022-09-20T20:30:21.659Z,1.50
2022-09-20T20:33:17.150Z,1.50
2022-09-20T20:36:09.129Z,1.50
2022-09-20T20:39:00.180Z,1.50
2022-09-20T20:41:52.980Z,1.60
2022-09-20T20:44:43.477Z,1.50
2022-09-20T20:47:34.407Z,1.80
2022-09-20T20:50:25.162Z,1.50
2022-09-20T20:53:14.980Z,1.60
2022-09-20T20:56:07.918Z,1.40
2022-09-20T20:59:00.834Z,1.50
2022-09-20T21:01:50.397Z,1.70
2022-09-20T21:04:40.854Z,1.60
2022-09-20T21:07:31.204Z,1.70
2022-09-20T21:10:21.838Z,1.80
2022-09-20T21:13:11.993Z,1.70
2022-09-20T21:16:12.252Z,1.70
2022-09-20T21:19:02.575Z,1.80
2022-09-20T21:21:52.641Z,1.50
2022-09-20T21:24:42.649Z,1.70
2022-09-20T21:27:36.147Z,1.60
2022-09-20T21:30:26.703Z,1.80
2022-09-20T21:33:16.626Z,1.50
2022-09-20T21:36:09.251Z,1.60
2022-09-20T21:38:59.492Z,1.50
2022-09-20T21:41:49.940Z,1.70
2022-09-20T21:44:43.423Z,1.50
2022-09-20T21:47:33.558Z,1.50
2022-09-20T21:50:24.270Z,1.40
2022-09-20T21:53:17.166Z,1.50
2022-09-20T21:56:09.516Z,1.50
2022-09-20T21:59:02.208Z,1.60
2022-09-20T22:01:51.907Z,1.30
2022-09-20T22:04:41.916Z,1.50
2022-09-20T22:07:31.635Z,1.60
2022-09-20T22:10:21.873Z,1.70
2022-09-20T22:13:11.631Z,1.50
2022-09-20T22:16:08.404Z,1.60
2022-09-20T22:19:00.524Z,1.50
2022-09-20T22:21:51.876Z,1.40
2022-09-20T22:24:41.727Z,1.40
2022-09-20T22:27:31.503Z,1.30
2022-09-20T22:30:20.992Z,1.40
2022-09-20T22:33:10.736Z,1.50
2022-09-20T22:36:01.021Z,1.50
2022-09-20T22:38:51.501Z,1.60
2022-09-20T22:41:42.740Z,1.40
2022-09-20T22:44:34.786Z,1.50
2022-09-20T22:47:25.122Z,1.60
2022-09-20T22:50:15.295Z,1.50
2022-09-20T22:53:05.382Z,1.40
2022-09-20T22:55:55.331Z,1.70
2022-09-20T22:58:47.101Z,1.70
2022-09-20T23:01:41.166Z,1.50
2022-09-20T23:04:31.361Z,1.50
2022-09-20T23:07:21.885Z,1.70
2022-09-20T23:10:12.409Z,1.40
2022-09-20T23:13:02.649Z,1.40
2022-09-20T23:15:52.419Z,1.60
2022-09-20T23:18:42.108Z,1.50
2022-09-20T23:21:33.334Z,1.60
2022-09-20T23:24:24.027Z,1.40
2022-09-20T23:27:14.626Z,1.50
2022-09-20T23:30:05.346Z,1.50
2022-09-20T23:32:56.018Z,1.40
2022-09-20T23:35:49.619Z,1.50
2022-09-20T23:38:40.113Z,1.80
2022-09-20T23:41:31.449Z,1.60
2022-09-20T23:44:21.491Z,1.30
2022-09-20T23:47:11.644Z,1.60
2022-09-20T23:50:01.561Z,1.50
2022-09-20T23:52:51.189Z,1.60
2022-09-20T23:55:41.015Z,1.30
2022-09-20T23:58:31.335Z,1.50
